createdAt,value
2023-03-31T00:02:23.105Z,9.60
2023-03-31T00:04:55.186Z,9.61
2023-03-31T00:07:27.283Z,9.62
2023-03-31T00:10:16.529Z,9.62
2023-03-31T00:12:49.621Z,9.64
2023-03-31T00:15:21.808Z,9.65
2023-03-31T00:17:53.988Z,9.65
2023-03-31T00:20:25.944Z,9.65
2023-03-31T00:22:57.933Z,9.65
2023-03-31T00:25:30.200Z,9.66
2023-03-31T00:28:02.192Z,9.65
2023-03-31T00:30:34.534Z,9.65
2023-03-31T00:33:06.998Z,9.65
2023-03-31T00:35:40.345Z,9.65
2023-03-31T00:38:13.981Z,9.64
2023-03-31T00:40:50.250Z,9.64
2023-03-31T00:43:33.696Z,9.61
2023-03-31T00:46:17.153Z,9.59
2023-03-31T00:48:52.320Z,9.57
2023-03-31T00:51:25.554Z,9.56
2023-03-31T00:54:02.066Z,9.56
2023-03-31T00:56:39.236Z,9.55
2023-03-31T00:59:14.632Z,9.54
2023-03-31T01:01:50.637Z,9.51
2023-03-31T01:04:24.026Z,9.48
2023-03-31T01:07:02.438Z,9.43
2023-03-31T01:09:36.012Z,9.44
2023-03-31T01:12:11.780Z,9.42
2023-03-31T01:14:44.879Z,9.41
2023-03-31T01:17:23.391Z,9.39
2023-03-31T01:20:12.611Z,9.37
2023-03-31T01:23:15.855Z,9.37
2023-03-31T01:26:24.624Z,9.37
2023-03-31T01:29:02.925Z,9.36
2023-03-31T01:32:15.545Z,9.32
2023-03-31T01:35:26.228Z,9.26
2023-03-31T01:38:18.989Z,9.18
2023-03-31T01:41:19.016Z,9.10
2023-03-31T01:43:58.045Z,9.06
2023-03-31T01:46:34.146Z,9.02
2023-03-31T01:49:16.516Z,8.99
2023-03-31T01:51:59.149Z,8.94
2023-03-31T01:54:40.536Z,8.88
2023-03-31T01:57:17.724Z,8.81
2023-03-31T01:59:54.202Z,8.75
2023-03-31T02:02:32.522Z,8.69
2023-03-31T02:05:09.115Z,8.65
2023-03-31T02:07:48.130Z,8.60
2023-03-31T02:10:22.248Z,8.57
2023-03-31T02:12:54.918Z,8.55
2023-03-31T02:15:31.475Z,8.55
2023-03-31T02:18:11.137Z,8.53
2023-03-31T02:20:48.416Z,8.49
2023-03-31T02:23:26.768Z,8.44
2023-03-31T02:26:06.020Z,8.40
2023-03-31T02:28:39.128Z,8.38
2023-03-31T02:31:24.961Z,8.39
2023-03-31T02:33:57.617Z,8.39
2023-03-31T02:36:30.157Z,8.38
2023-03-31T02:39:07.740Z,8.38
2023-03-31T02:41:40.208Z,8.39
2023-03-31T02:44:12.626Z,8.37
2023-03-31T02:46:45.273Z,8.38
2023-03-31T02:49:18.741Z,8.41
2023-03-31T02:52:13.173Z,8.41
2023-03-31T02:55:09.290Z,8.40
2023-03-31T02:58:03.844Z,8.40
2023-03-31T03:00:53.567Z,8.41
2023-03-31T03:03:38.017Z,8.41
2023-03-31T03:06:30.322Z,8.40
2023-03-31T03:09:18.494Z,8.41
2023-03-31T03:12:02.305Z,8.42
2023-03-31T03:14:41.038Z,8.41
2023-03-31T03:17:18.158Z,8.40
2023-03-31T03:19:54.980Z,8.40
2023-03-31T03:22:27.466Z,8.41
2023-03-31T03:24:59.542Z,8.42
2023-03-31T03:27:31.503Z,8.41
2023-03-31T03:30:04.966Z,8.41
2023-03-31T03:32:37.268Z,8.42
2023-03-31T03:35:10.406Z,8.43
2023-03-31T03:37:42.382Z,8.42
2023-03-31T03:40:15.456Z,8.42
2023-03-31T03:42:48.186Z,8.41
2023-03-31T03:45:20.272Z,8.41
2023-03-31T03:47:52.286Z,8.36
2023-03-31T03:50:24.694Z,8.31
2023-03-31T03:52:56.660Z,8.28
2023-03-31T03:55:29.074Z,8.26
2023-03-31T03:58:01.078Z,8.22
2023-03-31T04:03:43.546Z,8.20
2023-03-31T04:06:18.142Z,8.14
2023-03-31T04:08:50.122Z,8.10
2023-03-31T04:11:22.209Z,8.05
2023-03-31T04:13:54.759Z,8.00
2023-03-31T04:16:27.136Z,7.95
2023-03-31T04:18:59.749Z,7.91
2023-03-31T04:21:35.135Z,7.86
2023-03-31T04:24:08.413Z,7.81
2023-03-31T04:26:43.994Z,7.78
2023-03-31T04:29:17.662Z,7.74
2023-03-31T04:31:52.864Z,7.70
2023-03-31T04:34:26.750Z,7.67
2023-03-31T04:37:02.801Z,7.64
2023-03-31T04:39:34.799Z,7.62
2023-03-31T04:42:06.902Z,7.61
2023-03-31T04:44:38.910Z,7.57
2023-03-31T04:47:10.979Z,7.56
2023-03-31T04:49:43.121Z,7.57
2023-03-31T04:52:15.445Z,7.56
2023-03-31T04:54:47.884Z,7.55
2023-03-31T04:57:19.993Z,7.55
2023-03-31T04:59:52.217Z,7.54
2023-03-31T05:02:25.452Z,7.52
2023-03-31T05:04:58.056Z,7.52
2023-03-31T05:07:30.437Z,7.52
2023-03-31T05:10:02.460Z,7.55
2023-03-31T05:12:37.226Z,7.62
2023-03-31T05:15:10.922Z,7.71
2023-03-31T05:17:42.883Z,7.79
2023-03-31T05:20:15.689Z,7.89
2023-03-31T05:22:48.122Z,7.97
2023-03-31T05:25:20.423Z,8.03
2023-03-31T05:27:52.855Z,8.08
2023-03-31T05:30:26.436Z,8.12
2023-03-31T05:32:58.781Z,8.16
2023-03-31T05:35:31.237Z,8.22
2023-03-31T05:38:03.147Z,8.27
2023-03-31T05:40:35.105Z,8.32
2023-03-31T05:43:11.669Z,8.39
2023-03-31T05:45:43.631Z,8.48
2023-03-31T05:48:15.581Z,8.59
2023-03-31T05:50:47.569Z,8.68
2023-03-31T05:53:19.727Z,8.77
2023-03-31T05:55:51.837Z,8.87
2023-03-31T05:58:23.838Z,8.95
2023-03-31T06:01:06.292Z,9.01
2023-03-31T06:03:41.339Z,9.06
2023-03-31T06:06:15.163Z,9.12
2023-03-31T06:08:48.667Z,9.19
2023-03-31T06:11:23.266Z,9.29
2023-03-31T06:13:55.250Z,9.42
2023-03-31T06:16:29.219Z,9.61
2023-03-31T06:19:01.412Z,9.90
2023-03-31T06:21:33.968Z,10.20
2023-03-31T06:24:06.224Z,10.41
2023-03-31T06:26:38.465Z,10.42
2023-03-31T06:29:10.465Z,10.39
2023-03-31T06:31:42.543Z,10.35
2023-03-31T06:34:14.561Z,10.34
2023-03-31T06:36:46.565Z,10.35
2023-03-31T06:39:18.992Z,10.38
2023-03-31T06:41:51.058Z,10.40
2023-03-31T06:44:28.014Z,10.42
2023-03-31T06:47:00.161Z,10.44
2023-03-31T06:49:34.551Z,10.49
2023-03-31T06:52:07.138Z,10.55
2023-03-31T06:54:40.613Z,10.59
2023-03-31T06:57:12.909Z,10.65
2023-03-31T06:59:44.967Z,10.71
2023-03-31T07:02:17.026Z,10.78
2023-03-31T07:04:50.158Z,10.81
2023-03-31T07:07:22.739Z,10.92
2023-03-31T07:09:56.393Z,11.17
2023-03-31T07:12:28.699Z,11.46
2023-03-31T07:15:00.760Z,11.60
2023-03-31T07:17:33.025Z,11.76
2023-03-31T07:20:10.676Z,12.01
2023-03-31T07:22:43.138Z,12.29
2023-03-31T07:25:16.952Z,12.55
2023-03-31T07:27:49.124Z,12.86
2023-03-31T07:30:22.910Z,13.22
2023-03-31T07:32:58.237Z,13.59
2023-03-31T07:35:31.325Z,13.86
2023-03-31T07:38:03.814Z,14.01
2023-03-31T07:40:36.031Z,14.02
2023-03-31T07:43:08.609Z,13.94
2023-03-31T07:45:42.013Z,14.00
2023-03-31T07:51:26.243Z,15.21
2023-03-31T07:54:01.779Z,16.64
2023-03-31T07:56:33.868Z,17.30
2023-03-31T07:59:06.608Z,17.37
2023-03-31T08:01:38.760Z,17.35
2023-03-31T08:04:13.037Z,17.27
2023-03-31T08:06:45.110Z,17.59
2023-03-31T08:09:17.773Z,17.97
2023-03-31T08:11:50.194Z,17.93
2023-03-31T08:14:34.169Z,17.88
2023-03-31T08:17:13.831Z,17.85
2023-03-31T08:19:45.790Z,17.66
2023-03-31T08:22:17.850Z,17.14
2023-03-31T08:24:51.788Z,16.70
2023-03-31T08:27:26.684Z,16.32
2023-03-31T08:30:06.346Z,16.18
2023-03-31T08:32:44.024Z,16.30
2023-03-31T08:35:16.224Z,16.64
2023-03-31T08:37:48.371Z,17.09
2023-03-31T08:40:24.265Z,17.28
2023-03-31T08:42:59.510Z,17.44
2023-03-31T08:45:35.499Z,17.87
2023-03-31T08:48:18.213Z,19.17
2023-03-31T08:50:54.569Z,20.24
2023-03-31T08:53:30.750Z,20.93
2023-03-31T08:56:06.337Z,20.78
2023-03-31T08:58:44.650Z,20.27
2023-03-31T09:01:28.484Z,19.44
2023-03-31T09:04:17.885Z,18.88
2023-03-31T09:06:58.513Z,19.28
2023-03-31T09:09:41.186Z,20.34
2023-03-31T09:12:17.967Z,21.21
2023-03-31T09:14:59.250Z,22.71
2023-03-31T09:17:35.418Z,24.39
2023-03-31T09:20:14.265Z,24.43
2023-03-31T09:22:50.220Z,24.89
2023-03-31T09:25:26.616Z,25.56
2023-03-31T09:28:02.390Z,26.45
2023-03-31T09:30:38.225Z,26.28
2023-03-31T09:33:17.000Z,26.34
2023-03-31T09:35:51.369Z,26.41
2023-03-31T09:38:24.203Z,26.60
2023-03-31T09:40:56.340Z,26.40
2023-03-31T09:43:31.528Z,26.19
2023-03-31T09:46:14.752Z,25.00
2023-03-31T09:48:56.396Z,23.47
2023-03-31T09:51:37.345Z,22.10
2023-03-31T09:54:11.692Z,20.85
2023-03-31T09:56:53.189Z,19.86
2023-03-31T09:59:31.764Z,19.47
2023-03-31T10:02:07.204Z,20.61
2023-03-31T10:04:48.138Z,21.87
2023-03-31T10:07:25.637Z,22.12
2023-03-31T10:09:58.413Z,22.00
2023-03-31T10:12:32.526Z,21.82
2023-03-31T10:15:20.870Z,21.69
2023-03-31T10:17:55.338Z,21.59
2023-03-31T10:20:35.861Z,20.93
2023-03-31T10:23:16.932Z,20.45
2023-03-31T10:25:49.526Z,20.06
2023-03-31T10:28:23.921Z,19.56
2023-03-31T10:31:00.857Z,19.27
2023-03-31T10:33:35.855Z,19.69
2023-03-31T10:36:16.918Z,19.77
2023-03-31T10:38:50.231Z,19.68
2023-03-31T10:41:25.798Z,19.48
2023-03-31T10:44:02.420Z,19.35
2023-03-31T10:46:47.805Z,18.97
2023-03-31T10:49:27.645Z,18.69
2023-03-31T10:52:01.924Z,18.52
2023-03-31T10:57:51.120Z,17.96
2023-03-31T11:00:34.065Z,17.77
2023-03-31T11:03:39.046Z,17.67
2023-03-31T11:06:17.857Z,17.78
2023-03-31T11:09:01.338Z,17.88
2023-03-31T11:11:50.741Z,17.72
2023-03-31T11:14:31.020Z,17.40
2023-03-31T11:17:11.693Z,17.09
2023-03-31T11:19:57.343Z,16.79
2023-03-31T11:22:37.646Z,16.61
2023-03-31T11:25:23.512Z,16.51
2023-03-31T11:28:22.919Z,16.36
2023-03-31T11:31:05.655Z,16.19
2023-03-31T11:33:58.416Z,16.11
2023-03-31T11:36:59.354Z,16.12
2023-03-31T11:39:47.559Z,16.02
2023-03-31T11:42:24.132Z,16.03
2023-03-31T11:45:04.219Z,16.11
2023-03-31T11:47:42.339Z,16.13
2023-03-31T11:50:17.698Z,16.27
2023-03-31T11:52:55.425Z,16.55
2023-03-31T11:55:29.711Z,16.74
2023-03-31T11:58:07.124Z,16.96
2023-03-31T12:00:43.390Z,17.10
2023-03-31T12:03:21.202Z,16.91
2023-03-31T12:05:57.033Z,16.63
2023-03-31T12:08:34.561Z,16.49
2023-03-31T12:11:12.167Z,16.41
2023-03-31T12:13:52.387Z,16.47
2023-03-31T12:16:28.303Z,16.73
2023-03-31T12:19:08.018Z,16.98
2023-03-31T12:21:45.438Z,17.23
2023-03-31T12:24:17.465Z,17.45
2023-03-31T12:26:59.250Z,17.47
2023-03-31T12:29:35.719Z,17.22
2023-03-31T12:32:13.091Z,17.12
2023-03-31T12:34:56.947Z,17.05
2023-03-31T12:38:01.615Z,17.08
2023-03-31T12:40:48.091Z,17.19
2023-03-31T12:43:52.623Z,17.13
2023-03-31T12:46:44.962Z,17.10
2023-03-31T12:49:29.087Z,17.24
2023-03-31T12:52:08.101Z,17.40
2023-03-31T12:54:58.992Z,17.62
2023-03-31T12:57:31.369Z,17.53
2023-03-31T13:00:25.557Z,17.37
2023-03-31T13:03:25.173Z,17.27
2023-03-31T13:05:57.919Z,16.99
2023-03-31T13:08:53.987Z,16.77
2023-03-31T13:11:39.939Z,16.64
2023-03-31T13:14:18.961Z,16.60
2023-03-31T13:19:48.393Z,16.46
2023-03-31T13:22:35.327Z,16.39
2023-03-31T13:25:34.694Z,16.38
2023-03-31T13:28:16.812Z,16.39
2023-03-31T13:30:51.811Z,16.26
2023-03-31T13:33:27.722Z,16.05
2023-03-31T13:36:19.769Z,15.92
2023-03-31T13:39:04.237Z,15.84
2023-03-31T13:41:51.304Z,15.73
2023-03-31T13:44:41.084Z,15.60
2023-03-31T13:47:48.818Z,15.38
2023-03-31T13:50:37.164Z,15.06
2023-03-31T13:53:23.074Z,14.83
2023-03-31T13:56:19.689Z,14.68
2023-03-31T13:59:12.620Z,14.48
2023-03-31T14:01:57.680Z,14.21
2023-03-31T14:04:52.393Z,14.05
2023-03-31T14:07:30.351Z,14.00
2023-03-31T14:10:04.444Z,13.94
2023-03-31T14:12:38.363Z,13.89
2023-03-31T14:15:21.994Z,13.81
2023-03-31T14:17:54.825Z,13.77
2023-03-31T14:20:35.199Z,13.83
2023-03-31T14:23:19.496Z,13.98
2023-03-31T14:26:01.891Z,14.17
2023-03-31T14:28:58.299Z,14.32
2023-03-31T14:31:35.488Z,14.47
2023-03-31T14:34:24.851Z,14.52
2023-03-31T14:37:02.105Z,14.56
2023-03-31T14:39:37.582Z,14.54
2023-03-31T14:42:15.284Z,14.58
2023-03-31T14:44:48.705Z,14.57
2023-03-31T14:47:24.221Z,14.50
2023-03-31T14:50:05.201Z,14.36
2023-03-31T14:52:38.348Z,14.26
2023-03-31T14:55:17.462Z,14.20
2023-03-31T14:57:51.316Z,14.15
2023-03-31T15:00:29.324Z,14.04
2023-03-31T15:03:04.907Z,13.92
2023-03-31T15:05:39.504Z,13.83
2023-03-31T15:08:17.736Z,13.79
2023-03-31T15:10:58.953Z,13.70
2023-03-31T15:13:44.286Z,13.56
2023-03-31T15:16:34.959Z,13.44
2023-03-31T15:19:13.420Z,13.31
2023-03-31T15:21:45.906Z,13.21
2023-03-31T15:24:18.577Z,13.10
2023-03-31T15:26:56.975Z,12.96
2023-03-31T15:29:37.953Z,12.87
2023-03-31T15:32:17.437Z,12.78
2023-03-31T15:34:51.860Z,12.72
2023-03-31T15:37:32.727Z,12.65
2023-03-31T15:40:11.181Z,12.58
2023-03-31T15:45:47.116Z,12.53
2023-03-31T15:48:24.152Z,12.43
2023-03-31T15:51:02.695Z,12.36
2023-03-31T15:53:39.040Z,12.35
2023-03-31T15:56:25.155Z,12.30
2023-03-31T15:59:00.008Z,12.24
2023-03-31T16:01:35.080Z,12.17
2023-03-31T16:04:11.361Z,12.15
2023-03-31T16:06:48.533Z,12.14
2023-03-31T16:09:29.218Z,12.14
2023-03-31T16:12:06.114Z,12.14
2023-03-31T16:14:44.689Z,12.13
2023-03-31T16:17:26.106Z,12.15
2023-03-31T16:20:05.244Z,12.17
2023-03-31T16:22:42.286Z,12.13
2023-03-31T16:25:18.815Z,12.11
2023-03-31T16:27:53.015Z,12.10
2023-03-31T16:30:37.311Z,12.10
2023-03-31T16:33:11.234Z,12.04
2023-03-31T16:35:45.147Z,11.99
2023-03-31T16:38:17.515Z,11.96
2023-03-31T16:40:52.122Z,11.92
2023-03-31T16:43:25.264Z,11.86
2023-03-31T16:45:58.634Z,11.84
2023-03-31T16:48:32.038Z,11.80
2023-03-31T16:51:04.240Z,11.77
2023-03-31T16:53:37.247Z,11.76
2023-03-31T16:56:10.174Z,11.71
2023-03-31T16:58:43.762Z,11.66
2023-03-31T17:01:16.040Z,11.61
2023-03-31T17:03:50.290Z,11.57
2023-03-31T17:06:22.632Z,11.53
2023-03-31T17:08:54.800Z,11.53
2023-03-31T17:11:27.446Z,11.51
2023-03-31T17:14:00.295Z,11.47
2023-03-31T17:19:27.343Z,11.35
